createdAt,value
2022-08-19T00:03:42.219Z,21.10
2022-08-19T00:08:44.483Z,20.85
2022-08-19T00:13:47.328Z,22.73
2022-08-19T00:18:49.424Z,21.67
2022-08-19T00:23:51.857Z,27.60
2022-08-19T00:28:53.532Z,30.25
2022-08-19T00:33:55.430Z,23.08
2022-08-19T00:38:57.320Z,22.20
2022-08-19T00:44:15.736Z,22.60
2022-08-19T00:49:20.598Z,22.60
2022-08-19T00:54:31.018Z,24.10
2022-08-19T01:00:00.807Z,24.15
2022-08-19T01:05:02.664Z,26.90
2022-08-19T01:10:05.351Z,25.27
2022-08-19T01:15:10.405Z,23.90
2022-08-19T01:20:16.516Z,26.08
2022-08-19T01:25:21.502Z,24.75
2022-08-19T01:30:31.252Z,24.33
2022-08-19T01:35:33.490Z,25.00
2022-08-19T01:40:39.234Z,23.83
2022-08-19T01:45:41.341Z,22.52
2022-08-19T01:50:44.757Z,22.73
2022-08-19T01:55:46.708Z,23.55
2022-08-19T02:00:48.655Z,24.20
2022-08-19T02:05:58.585Z,24.02
2022-08-19T02:11:00.237Z,24.02
2022-08-19T02:16:01.901Z,22.65
2022-08-19T02:21:06.173Z,23.17
2022-08-19T02:26:07.832Z,22.35
2022-08-19T02:31:15.883Z,23.92
2022-08-19T02:36:20.802Z,22.48
2022-08-19T02:41:29.875Z,25.30
2022-08-19T02:46:33.835Z,24.45
2022-08-19T02:51:43.152Z,23.55
2022-08-19T02:56:44.993Z,22.85
2022-08-19T03:01:46.803Z,21.63
2022-08-19T03:06:48.639Z,24.60
2022-08-19T03:11:52.744Z,24.30
2022-08-19T03:16:54.735Z,23.60
2022-08-19T03:21:56.651Z,25.25
2022-08-19T03:26:59.714Z,24.63
2022-08-19T03:32:04.701Z,23.88
2022-08-19T03:37:10.807Z,27.15
2022-08-19T03:42:45.452Z,25.33
2022-08-19T03:47:35.093Z,23.90
2022-08-19T03:52:37.010Z,25.30
2022-08-19T03:57:38.643Z,26.00
2022-08-19T04:02:40.793Z,23.85
2022-08-19T04:07:42.979Z,24.77
2022-08-19T04:12:44.617Z,25.27
2022-08-19T04:17:46.259Z,25.90
2022-08-19T04:22:47.972Z,25.20
2022-08-19T04:27:50.162Z,23.02
2022-08-19T04:32:51.989Z,23.70
2022-08-19T04:37:53.792Z,23.95
2022-08-19T04:42:55.734Z,24.35
2022-08-19T04:48:26.893Z,25.13
2022-08-19T04:53:19.950Z,24.13
2022-08-19T04:58:21.770Z,23.98
2022-08-19T05:03:26.486Z,26.13
2022-08-19T05:08:31.801Z,26.92
2022-08-19T05:13:33.810Z,25.75
2022-08-19T05:18:54.074Z,27.83
2022-08-19T05:23:55.846Z,25.08
2022-08-19T05:28:57.525Z,26.15
2022-08-19T05:33:59.643Z,25.85
2022-08-19T05:39:01.617Z,25.10
2022-08-19T05:44:07.560Z,21.42
2022-08-19T05:49:09.269Z,19.30
2022-08-19T05:54:14.340Z,21.10
2022-08-19T05:59:17.806Z,19.85
2022-08-19T06:04:21.590Z,16.85
2022-08-19T06:09:25.564Z,14.93
2022-08-19T06:14:31.306Z,14.77
2022-08-19T06:19:35.093Z,14.05
2022-08-19T06:24:42.973Z,12.73
2022-08-19T06:29:44.713Z,14.48
2022-08-19T06:34:47.260Z,11.88
2022-08-19T06:39:49.603Z,11.73
2022-08-19T06:44:53.674Z,12.50
2022-08-19T06:50:05.268Z,13.23
2022-08-19T06:55:07.804Z,15.48
2022-08-19T07:00:16.850Z,17.20
2022-08-19T07:05:18.962Z,21.02
2022-08-19T07:10:22.150Z,20.40
2022-08-19T07:15:24.234Z,19.85
2022-08-19T07:20:28.649Z,21.98
2022-08-19T07:25:32.358Z,21.50
2022-08-19T07:30:37.933Z,24.17
2022-08-19T07:35:39.922Z,22.25
2022-08-19T07:40:42.268Z,23.23
2022-08-19T07:45:44.292Z,22.00
2022-08-19T07:50:46.317Z,23.10
2022-08-19T07:55:48.692Z,21.60
2022-08-19T08:00:51.641Z,22.75
2022-08-19T08:06:12.055Z,22.95
2022-08-19T08:11:15.516Z,23.83
2022-08-19T08:16:17.332Z,23.38
2022-08-19T08:21:19.032Z,24.70
2022-08-19T08:26:20.680Z,22.23
2022-08-19T08:31:22.426Z,19.75
2022-08-19T08:36:25.572Z,22.65
2022-08-19T08:41:41.636Z,21.05
2022-08-19T08:46:49.108Z,19.85
2022-08-19T08:52:08.282Z,21.35
2022-08-19T08:57:18.819Z,18.25
2022-08-19T09:02:20.759Z,17.20
2022-08-19T09:07:35.232Z,14.80
2022-08-19T09:12:51.065Z,13.00
2022-08-19T09:17:52.855Z,13.43
2022-08-19T09:22:54.676Z,15.43
2022-08-19T09:28:02.757Z,11.23
2022-08-19T09:33:05.630Z,12.27
2022-08-19T09:38:07.286Z,13.50
2022-08-19T09:43:13.417Z,13.27
2022-08-19T09:48:19.090Z,13.93
2022-08-19T09:53:25.799Z,17.17
2022-08-19T09:58:28.920Z,13.07
2022-08-19T10:03:31.834Z,12.05
2022-08-19T10:08:37.679Z,11.18
2022-08-19T10:13:39.729Z,9.55
2022-08-19T10:18:45.063Z,9.52
2022-08-19T10:23:53.501Z,9.23
2022-08-19T10:28:56.162Z,8.55
2022-08-19T10:34:02.170Z,7.45
2022-08-19T10:39:08.382Z,6.68
2022-08-19T10:44:13.941Z,5.53
2022-08-19T10:49:25.205Z,5.40
2022-08-19T10:54:47.797Z,5.65
2022-08-19T10:59:49.501Z,4.53
2022-08-19T11:04:52.533Z,4.50
2022-08-19T11:09:55.949Z,5.15
2022-08-19T11:14:57.646Z,5.40
2022-08-19T11:20:00.883Z,5.35
2022-08-19T11:25:03.533Z,5.55
2022-08-19T11:30:07.151Z,6.72
2022-08-19T11:35:09.927Z,6.97
2022-08-19T11:40:12.428Z,7.60
2022-08-19T11:45:14.996Z,7.68
2022-08-19T11:50:17.543Z,9.35
2022-08-19T11:55:20.348Z,14.05
2022-08-19T12:00:22.627Z,12.98
2022-08-19T12:05:24.269Z,13.18
2022-08-19T12:10:26.507Z,15.38
2022-08-19T12:15:37.331Z,15.13
2022-08-19T12:20:41.743Z,18.83
2022-08-19T12:25:51.042Z,20.13
2022-08-19T12:30:53.006Z,18.35
2022-08-19T12:35:55.340Z,18.88
2022-08-19T12:41:00.278Z,19.83
2022-08-19T12:46:03.577Z,20.02
2022-08-19T12:51:11.218Z,20.92
2022-08-19T12:56:15.674Z,21.63
2022-08-19T13:01:22.039Z,22.92
2022-08-19T13:06:24.783Z,24.58
2022-08-19T13:11:26.588Z,21.52
2022-08-19T13:16:28.919Z,26.33
2022-08-19T13:21:31.067Z,26.77
2022-08-19T13:26:32.774Z,25.55
2022-08-19T13:31:55.389Z,22.73
2022-08-19T13:36:57.171Z,24.73
2022-08-19T13:42:01.591Z,33.95
2022-08-19T13:47:08.037Z,33.00
2022-08-19T13:52:09.956Z,39.72
2022-08-19T13:57:11.640Z,40.22
2022-08-19T14:02:13.285Z,42.40
2022-08-19T14:07:15.214Z,42.83
2022-08-19T14:12:28.859Z,42.58
2022-08-19T14:17:31.136Z,41.08
2022-08-19T14:22:32.774Z,39.58
2022-08-19T14:27:35.896Z,34.42
2022-08-19T14:32:38.029Z,32.78
2022-08-19T14:37:45.413Z,31.67
2022-08-19T14:43:02.142Z,33.80
2022-08-19T14:48:05.596Z,39.97
2022-08-19T14:53:12.702Z,41.25
2022-08-19T14:58:28.913Z,38.92
2022-08-19T15:03:33.016Z,37.33
2022-08-19T15:08:37.849Z,33.75
2022-08-19T15:13:40.580Z,35.42
2022-08-19T15:18:45.397Z,35.40
2022-08-19T15:23:51.091Z,31.52
2022-08-19T15:28:53.120Z,34.25
2022-08-19T15:33:58.521Z,30.15
2022-08-19T15:39:00.620Z,31.02
2022-08-19T15:44:11.287Z,28.27
2022-08-19T15:49:14.611Z,25.15
2022-08-19T15:54:21.408Z,26.08
2022-08-19T15:59:46.635Z,27.67
2022-08-19T16:05:07.008Z,29.27
2022-08-19T16:10:26.473Z,27.33
2022-08-19T16:15:31.030Z,29.48
2022-08-19T16:20:33.073Z,28.17
2022-08-19T16:25:37.166Z,24.73
2022-08-19T16:30:40.596Z,27.20
2022-08-19T16:35:42.266Z,24.90
2022-08-19T16:40:46.736Z,24.08
2022-08-19T16:45:53.040Z,23.70
2022-08-19T16:50:54.686Z,24.35
2022-08-19T16:55:57.441Z,23.63
2022-08-19T17:01:04.091Z,28.35
2022-08-19T17:06:16.018Z,26.15
2022-08-19T17:11:24.505Z,27.25
2022-08-19T17:16:29.004Z,26.80
2022-08-19T17:21:32.782Z,27.55
2022-08-19T17:26:36.102Z,24.75
2022-08-19T17:31:38.240Z,25.58
2022-08-19T17:36:40.070Z,25.08
2022-08-19T17:41:42.934Z,24.48
2022-08-19T17:46:46.810Z,26.30
2022-08-19T17:51:49.617Z,24.67
2022-08-19T17:56:51.391Z,24.75
2022-08-19T18:01:54.592Z,26.48
2022-08-19T18:06:56.807Z,24.67
2022-08-19T18:11:59.595Z,24.95
2022-08-19T18:17:09.562Z,26.33
2022-08-19T18:22:35.525Z,27.83
2022-08-19T18:27:37.208Z,26.30
2022-08-19T18:32:39.289Z,29.42
2022-08-19T18:37:42.220Z,27.27
2022-08-19T18:43:23.628Z,25.35
2022-08-19T18:48:44.517Z,27.27
2022-08-19T18:53:48.585Z,27.85
2022-08-19T18:58:50.455Z,28.40
2022-08-19T19:03:54.065Z,31.63
2022-08-19T19:08:56.967Z,34.63
2022-08-19T19:14:02.017Z,35.55
2022-08-19T19:19:07.008Z,37.70
2022-08-19T19:24:09.076Z,38.83
2022-08-19T19:29:10.901Z,37.72
2022-08-19T19:34:29.249Z,37.88
2022-08-19T19:39:45.357Z,38.85
2022-08-19T19:44:51.354Z,36.80
2022-08-19T19:50:13.694Z,34.63
2022-08-19T19:55:20.707Z,33.95
2022-08-19T20:00:22.375Z,36.38
2022-08-19T20:05:24.623Z,34.58
2022-08-19T20:10:26.827Z,33.10
2022-08-19T20:15:29.440Z,33.80
2022-08-19T20:20:31.860Z,37.72
2022-08-19T20:25:34.356Z,34.13
2022-08-19T20:30:36.211Z,32.88
2022-08-19T20:35:40.825Z,29.98
2022-08-19T20:40:42.835Z,30.60
2022-08-19T20:45:44.571Z,29.85
2022-08-19T20:50:47.703Z,30.38
2022-08-19T20:55:51.182Z,27.15
2022-08-19T21:00:57.925Z,28.27
2022-08-19T21:05:59.621Z,24.55
2022-08-19T21:11:01.825Z,27.50
2022-08-19T21:16:03.781Z,30.42
2022-08-19T21:21:10.745Z,27.13
2022-08-19T21:26:12.397Z,29.60
2022-08-19T21:31:15.262Z,29.50
2022-08-19T21:36:17.499Z,27.15
2022-08-19T21:41:19.148Z,26.17
2022-08-19T21:46:20.908Z,31.08
2022-08-19T21:51:22.568Z,31.80
2022-08-19T21:56:24.478Z,29.83
2022-08-19T22:01:26.209Z,31.08
2022-08-19T22:06:27.906Z,28.25
2022-08-19T22:11:29.637Z,28.02
2022-08-19T22:16:32.539Z,27.92
2022-08-19T22:21:40.917Z,29.10
2022-08-19T22:26:42.889Z,26.23
2022-08-19T22:31:44.959Z,28.70
2022-08-19T22:36:46.588Z,27.98
2022-08-19T22:41:49.442Z,29.30
2022-08-19T22:46:51.095Z,26.48
2022-08-19T22:52:11.319Z,28.67
2022-08-19T22:57:13.705Z,30.05
2022-08-19T23:02:52.157Z,30.80
2022-08-19T23:07:54.619Z,28.40
2022-08-19T23:12:58.801Z,28.35
2022-08-19T23:18:02.114Z,27.55
2022-08-19T23:23:08.647Z,29.20
2022-08-19T23:28:28.813Z,26.52
2022-08-19T23:33:36.221Z,29.52
2022-08-19T23:38:52.894Z,31.08
2022-08-19T23:43:54.962Z,30.23
2022-08-19T23:48:57.177Z,28.83
2022-08-19T23:53:58.839Z,31.85
2022-08-19T23:59:00.490Z,30.20
